createdAt,value
2022-09-10T00:01:43.507Z,8.60
2022-09-10T00:04:13.741Z,7.95
2022-09-10T00:06:42.531Z,8.95
2022-09-10T00:09:11.207Z,7.70
2022-09-10T00:11:41.244Z,7.47
2022-09-10T00:14:13.717Z,7.85
2022-09-10T00:16:41.434Z,8.45
2022-09-10T00:19:09.190Z,9.00
2022-09-10T00:21:36.825Z,6.97
2022-09-10T00:24:05.315Z,9.15
2022-09-10T00:26:38.303Z,10.38
2022-09-10T00:29:11.606Z,8.63
2022-09-10T00:31:39.849Z,6.88
2022-09-10T00:34:09.163Z,7.30
2022-09-10T00:36:43.314Z,7.03
2022-09-10T00:39:14.641Z,6.28
2022-09-10T00:41:45.314Z,6.55
2022-09-10T00:44:39.596Z,6.82
2022-09-10T00:47:29.183Z,6.90
2022-09-10T00:50:26.069Z,5.88
2022-09-10T00:52:58.126Z,5.55
2022-09-10T00:55:25.879Z,5.57
2022-09-10T00:57:58.330Z,5.75
2022-09-10T01:00:26.109Z,5.43
2022-09-10T01:02:55.034Z,5.57
2022-09-10T01:07:52.049Z,5.68
2022-09-10T01:10:28.991Z,6.65
2022-09-10T01:13:17.723Z,7.30
2022-09-10T01:15:55.999Z,6.22
2022-09-10T01:18:52.309Z,6.50
2022-09-10T01:21:36.703Z,5.68
2022-09-10T01:24:20.915Z,6.25
2022-09-10T01:27:25.323Z,5.85
2022-09-10T01:30:06.174Z,6.40
2022-09-10T01:32:35.468Z,6.40
2022-09-10T01:35:23.893Z,6.15
2022-09-10T01:37:56.254Z,5.88
2022-09-10T01:40:29.902Z,6.18
2022-09-10T01:43:09.768Z,5.72
2022-09-10T01:45:52.370Z,5.82
2022-09-10T01:49:00.749Z,5.28
2022-09-10T01:52:25.409Z,6.30
2022-09-10T01:55:38.474Z,8.00
2022-09-10T01:58:26.402Z,8.32
2022-09-10T02:01:11.438Z,7.13
2022-09-10T02:03:42.635Z,9.40
2022-09-10T02:06:14.850Z,7.28
2022-09-10T02:08:45.642Z,10.88
2022-09-10T02:11:14.593Z,12.27
2022-09-10T02:13:47.509Z,13.90
2022-09-10T02:16:40.682Z,13.68
2022-09-10T02:19:09.069Z,13.52
2022-09-10T02:21:37.754Z,10.87
2022-09-10T02:24:08.472Z,10.85
2022-09-10T02:26:40.508Z,9.60
2022-09-10T02:29:12.304Z,10.55
2022-09-10T02:31:41.300Z,10.80
2022-09-10T02:34:09.169Z,10.52
2022-09-10T02:36:37.535Z,10.15
2022-09-10T02:39:06.162Z,10.70
2022-09-10T02:41:34.814Z,10.10
2022-09-10T02:44:04.607Z,9.88
2022-09-10T02:46:32.322Z,9.13
2022-09-10T02:49:00.956Z,8.93
2022-09-10T02:51:31.730Z,8.02
2022-09-10T02:54:00.076Z,6.82
2022-09-10T02:56:27.637Z,8.38
2022-09-10T02:58:55.394Z,8.13
2022-09-10T03:01:25.149Z,7.13
2022-09-10T03:04:13.036Z,6.93
2022-09-10T03:06:43.821Z,6.13
2022-09-10T03:09:11.427Z,6.40
2022-09-10T03:11:40.024Z,6.88
2022-09-10T03:14:09.870Z,6.78
2022-09-10T03:16:37.732Z,6.82
2022-09-10T03:19:07.397Z,5.82
2022-09-10T03:21:35.208Z,6.60
2022-09-10T03:24:05.260Z,7.13
2022-09-10T03:26:33.769Z,6.47
2022-09-10T03:29:01.441Z,5.53
2022-09-10T03:31:32.353Z,5.05
2022-09-10T03:34:01.457Z,4.73
2022-09-10T03:36:31.379Z,5.13
2022-09-10T03:38:59.706Z,5.70
2022-09-10T03:41:32.000Z,5.95
2022-09-10T03:44:00.922Z,5.85
2022-09-10T03:46:28.634Z,5.93
2022-09-10T03:49:02.565Z,5.75
2022-09-10T03:51:34.206Z,6.03
2022-09-10T03:54:02.693Z,6.15
2022-09-10T03:56:34.225Z,5.97
2022-09-10T03:59:01.916Z,6.80
2022-09-10T04:01:30.215Z,5.72
2022-09-10T04:03:58.377Z,6.10
2022-09-10T04:06:28.793Z,6.38
2022-09-10T04:08:56.559Z,7.00
2022-09-10T04:11:27.631Z,6.20
2022-09-10T04:13:57.136Z,7.60
2022-09-10T04:18:54.367Z,7.10
2022-09-10T04:21:23.266Z,7.18
2022-09-10T04:23:55.668Z,7.10
2022-09-10T04:26:23.822Z,7.60
2022-09-10T04:28:51.524Z,7.75
2022-09-10T04:31:19.897Z,8.07
2022-09-10T04:33:47.868Z,8.45
2022-09-10T04:36:19.460Z,7.55
2022-09-10T04:38:47.109Z,8.20
2022-09-10T04:41:19.704Z,8.02
2022-09-10T04:43:48.729Z,8.38
2022-09-10T04:46:17.749Z,8.10
2022-09-10T04:48:46.377Z,7.97
2022-09-10T04:51:18.418Z,7.32
2022-09-10T04:53:48.707Z,7.38
2022-09-10T04:56:18.060Z,7.30
2022-09-10T04:58:47.234Z,7.15
2022-09-10T05:01:15.005Z,7.28
2022-09-10T05:03:45.084Z,6.35
2022-09-10T05:06:15.186Z,5.80
2022-09-10T05:08:45.129Z,5.88
2022-09-10T05:11:13.256Z,6.47
2022-09-10T05:13:43.212Z,6.07
2022-09-10T05:16:12.546Z,6.30
2022-09-10T05:21:10.395Z,5.90
2022-09-10T05:23:39.610Z,5.82
2022-09-10T05:26:07.249Z,5.97
2022-09-10T05:28:34.890Z,5.97
2022-09-10T05:31:02.521Z,6.53
2022-09-10T05:33:31.074Z,6.18
2022-09-10T05:36:00.024Z,6.18
2022-09-10T05:38:28.580Z,5.25
2022-09-10T05:40:57.145Z,5.93
2022-09-10T05:43:24.897Z,5.03
2022-09-10T05:45:52.883Z,4.78
2022-09-10T05:48:21.484Z,4.80
2022-09-10T05:50:51.101Z,5.20
2022-09-10T05:53:18.987Z,5.35
2022-09-10T05:55:47.035Z,4.88
2022-09-10T05:58:17.178Z,4.80
2022-09-10T06:00:45.114Z,5.32
2022-09-10T06:03:15.331Z,4.80
2022-09-10T06:05:52.829Z,5.03
2022-09-10T06:08:29.416Z,4.90
2022-09-10T06:11:05.255Z,5.45
2022-09-10T06:13:45.968Z,5.25
2022-09-10T06:16:15.516Z,4.82
2022-09-10T06:18:45.237Z,4.20
2022-09-10T06:21:18.226Z,4.75
2022-09-10T06:23:54.426Z,4.75
2022-09-10T06:26:24.107Z,3.08
2022-09-10T06:28:56.929Z,4.38
2022-09-10T06:31:25.359Z,3.45
2022-09-10T06:33:55.272Z,3.45
2022-09-10T06:36:28.667Z,3.25
2022-09-10T06:38:58.245Z,3.17
2022-09-10T06:41:27.091Z,2.90
2022-09-10T06:44:11.271Z,3.00
2022-09-10T06:49:31.620Z,3.00
2022-09-10T06:51:59.480Z,3.42
2022-09-10T06:54:27.806Z,3.50
2022-09-10T06:57:01.638Z,2.78
2022-09-10T06:59:34.804Z,4.03
2022-09-10T07:02:03.509Z,2.95
2022-09-10T07:04:32.716Z,3.20
2022-09-10T07:07:00.862Z,3.08
2022-09-10T07:09:28.705Z,2.85
2022-09-10T07:11:58.503Z,2.72
2022-09-10T07:14:28.312Z,3.53
2022-09-10T07:16:57.799Z,3.03
2022-09-10T07:19:29.939Z,3.03
2022-09-10T07:21:57.931Z,3.30
2022-09-10T07:24:26.162Z,3.25
2022-09-10T07:27:13.049Z,3.85
2022-09-10T07:29:46.432Z,4.22
2022-09-10T07:32:18.495Z,3.80
2022-09-10T07:34:47.393Z,3.38
2022-09-10T07:37:16.008Z,3.70
2022-09-10T07:39:46.362Z,3.42
2022-09-10T07:42:15.192Z,3.40
2022-09-10T07:44:43.119Z,4.00
2022-09-10T07:47:10.816Z,3.65
2022-09-10T07:49:39.089Z,3.65
2022-09-10T07:52:12.160Z,4.03
2022-09-10T07:54:48.748Z,2.83
2022-09-10T07:57:16.733Z,4.15
2022-09-10T07:59:44.275Z,3.80
2022-09-10T08:02:15.592Z,4.07
2022-09-10T08:04:47.391Z,3.40
2022-09-10T08:07:17.474Z,4.15
2022-09-10T08:09:46.862Z,4.32
2022-09-10T08:12:17.756Z,4.57
2022-09-10T08:14:47.563Z,5.47
2022-09-10T08:17:16.576Z,4.72
2022-09-10T08:19:46.154Z,4.45
2022-09-10T08:22:14.563Z,5.85
2022-09-10T08:24:52.747Z,4.90
2022-09-10T08:27:20.734Z,4.10
2022-09-10T08:32:17.919Z,3.22
2022-09-10T08:34:46.239Z,2.53
2022-09-10T08:37:14.732Z,3.13
2022-09-10T08:39:47.239Z,2.88
2022-09-10T08:42:23.868Z,2.75
2022-09-10T08:45:02.756Z,4.25
2022-09-10T08:47:51.154Z,1.88
2022-09-10T08:50:20.419Z,2.70
2022-09-10T08:53:11.124Z,2.08
2022-09-10T08:55:45.051Z,1.90
2022-09-10T08:58:23.288Z,2.20
2022-09-10T09:00:57.746Z,1.90
2022-09-10T09:03:45.700Z,1.95
2022-09-10T09:06:31.626Z,2.63
2022-09-10T09:09:04.558Z,1.67
2022-09-10T09:11:48.131Z,1.98
2022-09-10T09:14:33.832Z,2.53
2022-09-10T09:17:28.267Z,2.05
2022-09-10T09:20:03.755Z,1.50
2022-09-10T09:23:01.757Z,1.50
2022-09-10T09:25:47.153Z,1.98
2022-09-10T09:28:42.049Z,1.40
2022-09-10T09:31:42.842Z,1.40
2022-09-10T09:34:44.061Z,2.35
2022-09-10T09:37:26.710Z,1.58
2022-09-10T09:40:28.933Z,1.42
2022-09-10T09:43:07.354Z,1.80
2022-09-10T09:45:44.328Z,1.33
2022-09-10T09:48:24.653Z,2.15
2022-09-10T09:51:00.517Z,1.33
2022-09-10T09:53:29.870Z,0.90
2022-09-10T09:56:00.556Z,1.42
2022-09-10T09:58:33.909Z,1.23
2022-09-10T10:01:06.164Z,1.10
2022-09-10T10:03:52.756Z,1.20
2022-09-10T10:06:26.702Z,0.93
2022-09-10T10:08:59.638Z,0.93
2022-09-10T10:11:41.829Z,0.98
2022-09-10T10:14:32.956Z,1.45
2022-09-10T10:17:01.261Z,1.27
2022-09-10T10:19:41.172Z,1.25
2022-09-10T10:22:14.886Z,1.33
2022-09-10T10:24:43.563Z,0.98
2022-09-10T10:27:33.042Z,1.80
2022-09-10T10:30:17.428Z,1.30
2022-09-10T10:33:02.274Z,1.60
2022-09-10T10:35:48.398Z,2.00
2022-09-10T10:38:40.292Z,1.30
2022-09-10T10:41:46.947Z,2.10
2022-09-10T10:44:55.286Z,3.58
2022-09-10T10:47:34.493Z,6.70
2022-09-10T10:50:16.017Z,2.75
2022-09-10T10:53:13.988Z,5.75
2022-09-10T10:55:57.232Z,20.38
2022-09-10T10:58:42.478Z,2.58
2022-09-10T11:01:13.228Z,1.70
2022-09-10T11:03:44.992Z,1.80
2022-09-10T11:06:16.517Z,6.53
2022-09-10T11:08:55.366Z,8.77
2022-09-10T11:14:13.508Z,2.85
2022-09-10T11:16:49.119Z,0.95
2022-09-10T11:19:25.893Z,1.35
2022-09-10T11:22:03.465Z,1.67
2022-09-10T11:24:59.087Z,1.00
2022-09-10T11:27:46.290Z,2.80
2022-09-10T11:30:20.239Z,1.23
2022-09-10T11:33:07.644Z,0.90
2022-09-10T11:35:44.455Z,1.77
2022-09-10T11:38:24.918Z,1.25
2022-09-10T11:41:23.685Z,0.88
2022-09-10T11:44:18.244Z,0.43
2022-09-10T11:47:05.014Z,0.60
2022-09-10T11:49:45.330Z,0.88
2022-09-10T11:52:14.599Z,0.60
2022-09-10T11:54:47.821Z,0.68
2022-09-10T11:57:18.905Z,1.23
2022-09-10T11:59:55.347Z,0.85
2022-09-10T12:02:29.016Z,0.60
2022-09-10T12:05:21.051Z,0.47
2022-09-10T12:08:10.659Z,1.08
2022-09-10T12:11:04.654Z,0.73
2022-09-10T12:13:36.235Z,0.90
2022-09-10T12:16:41.293Z,1.05
2022-09-10T12:19:28.687Z,0.70
2022-09-10T12:22:09.381Z,0.98
2022-09-10T12:24:39.428Z,0.80
2022-09-10T12:27:17.563Z,1.10
2022-09-10T12:29:45.310Z,0.50
2022-09-10T12:32:28.626Z,1.25
2022-09-10T12:35:31.261Z,0.60
2022-09-10T12:38:37.025Z,1.15
2022-09-10T12:41:10.432Z,0.68
2022-09-10T12:43:41.614Z,1.05
2022-09-10T12:46:09.404Z,0.70
2022-09-10T12:48:40.145Z,1.00
2022-09-10T12:51:16.739Z,0.80
2022-09-10T12:54:35.514Z,0.55
2022-09-10T12:57:12.924Z,0.77
2022-09-10T13:00:26.479Z,0.60
2022-09-10T13:03:14.076Z,0.90
2022-09-10T13:05:45.043Z,1.05
2022-09-10T13:08:15.889Z,0.60
2022-09-10T13:11:00.059Z,1.15
2022-09-10T13:13:40.332Z,0.73
2022-09-10T13:16:31.583Z,0.90
2022-09-10T13:19:14.573Z,0.70
2022-09-10T13:21:46.423Z,0.75
2022-09-10T13:24:34.613Z,0.65
2022-09-10T13:27:18.577Z,0.95
2022-09-10T13:30:16.779Z,0.60
2022-09-10T13:32:49.867Z,0.63
2022-09-10T13:35:47.578Z,0.50
2022-09-10T13:39:19.910Z,0.60
2022-09-10T13:42:14.101Z,0.55
2022-09-10T13:45:07.917Z,0.60
2022-09-10T13:47:39.740Z,0.65
2022-09-10T13:50:18.606Z,0.50
2022-09-10T13:52:48.378Z,0.30
2022-09-10T13:55:20.919Z,0.30
2022-09-10T13:57:52.373Z,0.63
2022-09-10T14:00:27.829Z,0.45
2022-09-10T14:02:59.066Z,0.60
2022-09-10T14:05:40.749Z,0.82
2022-09-10T14:08:15.394Z,0.98
2022-09-10T14:10:58.067Z,1.00
2022-09-10T14:13:40.218Z,0.80
2022-09-10T14:16:14.261Z,0.70
2022-09-10T14:18:48.694Z,0.70
2022-09-10T14:21:19.697Z,1.25
2022-09-10T14:23:49.445Z,0.68
2022-09-10T14:27:03.543Z,0.90
2022-09-10T14:29:31.506Z,0.55
2022-09-10T14:32:32.672Z,0.80
2022-09-10T14:35:39.484Z,1.17
2022-09-10T14:38:45.378Z,0.65
2022-09-10T14:41:22.628Z,1.48
2022-09-10T14:44:11.197Z,0.80
2022-09-10T14:46:54.449Z,0.60
2022-09-10T14:49:29.541Z,0.82
2022-09-10T14:52:01.647Z,0.95
2022-09-10T14:54:32.152Z,0.95
2022-09-10T14:57:13.210Z,0.90
2022-09-10T14:59:45.407Z,0.93
2022-09-10T15:02:27.825Z,1.83
2022-09-10T15:04:55.924Z,0.80
2022-09-10T15:07:27.688Z,0.80
2022-09-10T15:09:55.508Z,0.75
2022-09-10T15:12:31.997Z,1.02
2022-09-10T15:14:59.732Z,1.20
2022-09-10T15:17:27.552Z,1.10
2022-09-10T15:19:56.415Z,1.20
2022-09-10T15:22:27.102Z,0.85
2022-09-10T15:25:09.737Z,1.17
2022-09-10T15:27:38.579Z,0.82
2022-09-10T15:30:07.036Z,0.68
2022-09-10T15:32:34.727Z,0.93
2022-09-10T15:35:03.616Z,1.25
2022-09-10T15:37:31.531Z,0.88
2022-09-10T15:39:59.800Z,1.52
2022-09-10T15:42:27.617Z,1.05
2022-09-10T15:44:55.695Z,0.90
2022-09-10T15:47:24.240Z,0.67
2022-09-10T15:49:52.916Z,0.93
2022-09-10T15:52:20.535Z,0.93
2022-09-10T15:54:48.229Z,1.25
2022-09-10T15:57:16.074Z,1.02
2022-09-10T15:59:44.112Z,1.35
2022-09-10T16:02:15.686Z,1.00
2022-09-10T16:04:43.737Z,0.55
2022-09-10T16:07:11.935Z,0.43
2022-09-10T16:09:40.250Z,0.40
2022-09-10T16:12:08.792Z,1.30
2022-09-10T16:14:37.280Z,0.70
2022-09-10T16:17:10.558Z,0.90
2022-09-10T16:19:38.565Z,0.70
2022-09-10T16:22:06.570Z,0.82
2022-09-10T16:24:35.637Z,1.00
2022-09-10T16:27:03.414Z,1.40
2022-09-10T16:29:32.684Z,1.05
2022-09-10T16:32:00.800Z,0.98
2022-09-10T16:34:28.792Z,1.02
2022-09-10T16:36:59.723Z,0.98
2022-09-10T16:39:27.567Z,1.10
2022-09-10T16:41:56.298Z,0.90
2022-09-10T16:46:52.802Z,1.27
2022-09-10T16:51:50.225Z,0.97
2022-09-10T16:54:22.548Z,1.10
2022-09-10T16:56:51.421Z,1.00
2022-09-10T17:01:52.169Z,0.77
2022-09-10T17:04:28.241Z,1.00
2022-09-10T17:06:57.908Z,0.60
2022-09-10T17:09:27.638Z,0.70
2022-09-10T17:11:56.357Z,0.95
2022-09-10T17:14:24.961Z,1.00
2022-09-10T17:16:53.206Z,1.02
2022-09-10T17:19:23.927Z,0.80
2022-09-10T17:21:55.327Z,1.10
2022-09-10T17:24:27.232Z,1.13
2022-09-10T17:26:55.929Z,0.80
2022-09-10T17:29:25.814Z,0.77
2022-09-10T17:31:55.501Z,1.63
2022-09-10T17:34:24.708Z,0.98
2022-09-10T17:36:52.682Z,0.93
2022-09-10T17:39:20.882Z,1.00
2022-09-10T17:41:48.784Z,1.15
2022-09-10T17:44:16.787Z,1.50
2022-09-10T17:46:46.493Z,1.25
2022-09-10T17:49:14.671Z,0.77
2022-09-10T17:51:43.156Z,1.00
2022-09-10T17:54:11.142Z,0.90
2022-09-10T17:56:38.850Z,1.20
2022-09-10T17:59:06.689Z,1.10
2022-09-10T18:01:40.327Z,1.20
2022-09-10T18:04:12.907Z,0.80
2022-09-10T18:06:41.247Z,1.23
2022-09-10T18:09:09.757Z,0.87
2022-09-10T18:11:40.190Z,1.90
2022-09-10T18:14:08.897Z,1.45
2022-09-10T18:16:37.922Z,1.23
2022-09-10T18:19:13.902Z,1.88
2022-09-10T18:21:44.362Z,1.98
2022-09-10T18:24:19.469Z,1.00
2022-09-10T18:26:49.683Z,1.42
2022-09-10T18:29:23.534Z,0.90
2022-09-10T18:31:53.985Z,0.98
2022-09-10T18:34:24.791Z,0.93
2022-09-10T18:36:54.719Z,1.00
2022-09-10T18:39:23.806Z,1.08
2022-09-10T18:41:51.735Z,1.52
2022-09-10T18:44:25.188Z,0.82
2022-09-10T18:46:53.418Z,1.15
2022-09-10T18:49:24.437Z,1.10
2022-09-10T18:51:53.733Z,1.00
2022-09-10T18:54:23.464Z,1.20
2022-09-10T18:56:51.529Z,1.50
2022-09-10T18:59:21.679Z,1.10
2022-09-10T19:01:51.670Z,1.15
2022-09-10T19:04:25.906Z,2.08
2022-09-10T19:06:54.425Z,1.13
2022-09-10T19:09:24.197Z,1.60
2022-09-10T19:11:53.371Z,1.30
2022-09-10T19:14:26.604Z,2.28
2022-09-10T19:16:56.298Z,1.98
2022-09-10T19:19:27.113Z,3.83
2022-09-10T19:22:01.257Z,3.58
2022-09-10T19:24:51.010Z,3.75
2022-09-10T19:27:17.674Z,3.53
2022-09-10T19:29:47.355Z,2.35
2022-09-10T19:32:17.077Z,2.20
2022-09-10T19:34:44.832Z,2.15
2022-09-10T19:37:13.032Z,2.17
2022-09-10T19:39:41.007Z,3.20
2022-09-10T19:42:08.671Z,2.27
2022-09-10T19:44:38.578Z,2.45
2022-09-10T19:49:34.484Z,2.50
2022-09-10T19:52:05.446Z,2.53
2022-09-10T19:54:33.036Z,1.92
2022-09-10T19:57:00.842Z,2.45
2022-09-10T19:59:28.572Z,2.17
2022-09-10T20:01:56.170Z,2.35
2022-09-10T20:04:25.729Z,1.98
2022-09-10T20:06:53.370Z,2.83
2022-09-10T20:09:21.158Z,1.95
2022-09-10T20:11:49.155Z,2.88
2022-09-10T20:14:16.833Z,2.87
2022-09-10T20:16:45.320Z,3.10
2022-09-10T20:19:18.607Z,3.53
2022-09-10T20:21:47.865Z,3.97
2022-09-10T20:24:16.255Z,4.38
2022-09-10T20:26:46.617Z,5.47
2022-09-10T20:29:18.882Z,8.18
2022-09-10T20:31:48.569Z,10.95
2022-09-10T20:34:19.705Z,10.52
2022-09-10T20:36:51.385Z,12.15
2022-09-10T20:41:03.066Z,10.43
2022-09-10T20:43:31.240Z,9.13
2022-09-10T20:46:00.187Z,7.70
2022-09-10T20:50:59.719Z,8.65
2022-09-10T20:53:27.871Z,7.88
2022-09-10T20:56:03.986Z,7.00
2022-09-10T20:58:36.999Z,7.03
2022-09-10T21:01:05.907Z,8.10
2022-09-10T21:03:33.786Z,7.63
2022-09-10T21:06:02.082Z,8.45
2022-09-10T21:08:33.561Z,9.60
2022-09-10T21:11:02.902Z,10.85
2022-09-10T21:13:31.378Z,11.25
2022-09-10T21:16:23.831Z,9.82
2022-09-10T21:18:55.293Z,10.80
2022-09-10T21:21:25.844Z,9.50
2022-09-10T21:24:04.976Z,8.70
2022-09-10T21:26:35.482Z,7.93
2022-09-10T21:29:05.963Z,7.80
2022-09-10T21:31:35.724Z,7.38
2022-09-10T21:34:03.786Z,7.90
2022-09-10T21:36:33.069Z,7.97
2022-09-10T21:39:03.449Z,7.38
2022-09-10T21:41:40.144Z,7.28
2022-09-10T21:44:14.591Z,6.72
2022-09-10T21:46:43.938Z,8.10
2022-09-10T21:49:13.127Z,6.10
2022-09-10T22:09:20.745Z,6.47
2022-09-10T22:11:51.987Z,6.45
2022-09-10T22:14:22.748Z,7.80
2022-09-10T22:16:53.107Z,6.07
2022-09-10T22:19:26.260Z,6.28
2022-09-10T22:21:55.108Z,5.28
2022-09-10T22:24:23.260Z,6.53
2022-09-10T22:26:51.237Z,5.72
2022-09-10T22:29:19.877Z,6.00
2022-09-10T22:31:48.531Z,4.95
2022-09-10T22:34:17.516Z,5.50
2022-09-10T22:39:14.780Z,4.80
2022-09-10T22:44:10.861Z,5.35
2022-09-10T22:46:39.099Z,4.22
2022-09-10T22:49:07.870Z,5.00
2022-09-10T22:51:38.380Z,4.07
2022-09-10T22:54:06.956Z,3.95
2022-09-10T22:56:38.021Z,4.43
2022-09-10T22:59:06.796Z,4.38
2022-09-10T23:01:36.749Z,4.15
2022-09-10T23:04:06.388Z,4.18
2022-09-10T23:06:36.791Z,4.88
2022-09-10T23:09:11.070Z,4.55
2022-09-10T23:11:39.600Z,4.47
2022-09-10T23:14:11.300Z,5.68
2022-09-10T23:16:44.061Z,4.32
2022-09-10T23:19:14.661Z,4.82
2022-09-10T23:21:44.392Z,4.57
2022-09-10T23:24:14.376Z,4.80
2022-09-10T23:26:43.314Z,6.00
2022-09-10T23:31:40.808Z,5.70
2022-09-10T23:34:16.694Z,5.85
2022-09-10T23:36:46.438Z,5.57
2022-09-10T23:39:22.852Z,6.03
2022-09-10T23:41:53.005Z,5.15
2022-09-10T23:44:21.047Z,6.15
2022-09-10T23:46:49.220Z,4.18
2022-09-10T23:49:17.375Z,6.40
2022-09-10T23:51:45.262Z,6.13
2022-09-10T23:54:13.086Z,6.05
2022-09-10T23:56:41.225Z,6.40
2022-09-10T23:59:09.360Z,6.40
